createdAt,value
2022-11-20T00:00:16.307Z,447.00
2022-11-20T00:00:46.398Z,446.00
2022-11-20T00:01:16.480Z,444.00
2022-11-20T00:01:46.632Z,443.00
2022-11-20T00:02:16.659Z,443.00
2022-11-20T00:02:46.627Z,444.00
2022-11-20T00:03:16.735Z,444.00
2022-11-20T00:03:46.824Z,442.00
2022-11-20T00:04:16.910Z,440.00
2022-11-20T00:04:47.045Z,440.00
2022-11-20T00:05:17.013Z,442.00
2022-11-20T00:05:47.024Z,440.00
2022-11-20T00:06:17.064Z,439.00
2022-11-20T00:06:47.070Z,438.00
2022-11-20T00:07:17.135Z,438.00
2022-11-20T00:07:47.130Z,437.00
2022-11-20T00:08:17.137Z,435.00
2022-11-20T00:08:47.164Z,436.00
2022-11-20T00:09:17.169Z,438.00
2022-11-20T00:09:47.305Z,438.00
2022-11-20T00:10:17.298Z,438.00
2022-11-20T00:10:47.290Z,440.00
2022-11-20T00:11:17.637Z,441.00
2022-11-20T00:11:47.509Z,439.00
2022-11-20T00:12:17.635Z,440.00
2022-11-20T00:12:47.637Z,442.00
2022-11-20T00:13:17.640Z,444.00
2022-11-20T00:13:47.652Z,446.00
2022-11-20T00:14:17.647Z,444.00
2022-11-20T00:14:47.638Z,445.00
2022-11-20T00:15:17.642Z,445.00
2022-11-20T00:15:47.640Z,444.00
2022-11-20T00:16:17.631Z,444.00
2022-11-20T00:16:47.759Z,446.00
2022-11-20T00:17:17.768Z,445.00
2022-11-20T00:17:47.791Z,446.00
2022-11-20T00:18:17.776Z,447.00
2022-11-20T00:18:47.917Z,447.00
2022-11-20T00:19:18.579Z,450.00
2022-11-20T00:19:47.967Z,450.00
2022-11-20T00:20:17.988Z,447.00
2022-11-20T00:20:47.965Z,449.00
2022-11-20T00:21:17.987Z,449.00
2022-11-20T00:21:47.979Z,450.00
2022-11-20T00:22:18.104Z,451.00
2022-11-20T00:22:48.117Z,451.00
2022-11-20T00:23:18.112Z,451.00
2022-11-20T00:23:48.131Z,451.00
2022-11-20T00:24:18.119Z,451.00
2022-11-20T00:24:48.121Z,450.00
2022-11-20T00:25:18.236Z,450.00
2022-11-20T00:25:48.254Z,448.00
2022-11-20T00:26:18.310Z,449.00
2022-11-20T00:26:48.340Z,450.00
2022-11-20T00:27:18.332Z,447.00
2022-11-20T00:27:48.465Z,446.00
2022-11-20T00:28:18.488Z,445.00
2022-11-20T00:28:48.463Z,444.00
2022-11-20T00:29:18.727Z,442.00
2022-11-20T00:29:48.497Z,444.00
2022-11-20T00:30:18.504Z,442.00
2022-11-20T00:30:48.525Z,438.00
2022-11-20T00:31:18.545Z,437.00
2022-11-20T00:31:48.539Z,436.00
2022-11-20T00:32:18.581Z,433.00
2022-11-20T00:32:48.565Z,434.00
2022-11-20T00:33:18.583Z,433.00
2022-11-20T00:33:48.566Z,434.00
2022-11-20T00:34:18.686Z,434.00
2022-11-20T00:34:48.708Z,435.00
2022-11-20T00:35:18.702Z,434.00
2022-11-20T00:35:48.714Z,434.00
2022-11-20T00:36:18.846Z,434.00
2022-11-20T00:36:48.822Z,437.00
2022-11-20T00:37:18.965Z,437.00
2022-11-20T00:37:48.953Z,437.00
2022-11-20T00:38:18.969Z,436.00
2022-11-20T00:38:48.973Z,438.00
2022-11-20T00:39:19.444Z,438.00
2022-11-20T00:39:49.026Z,439.00
2022-11-20T00:40:19.031Z,437.00
2022-11-20T00:40:54.625Z,439.00
2022-11-20T00:41:19.064Z,439.00
2022-11-20T00:41:49.071Z,441.00
2022-11-20T00:42:19.079Z,440.00
2022-11-20T00:42:49.074Z,441.00
2022-11-20T00:43:19.072Z,440.00
2022-11-20T00:43:49.067Z,441.00
2022-11-20T00:44:19.183Z,441.00
2022-11-20T00:44:49.296Z,443.00
2022-11-20T00:45:19.426Z,443.00
2022-11-20T00:45:49.419Z,443.00
2022-11-20T00:46:19.557Z,443.00
2022-11-20T00:46:49.549Z,444.00
2022-11-20T00:47:19.666Z,444.00
2022-11-20T00:47:49.781Z,444.00
2022-11-20T00:48:19.795Z,444.00
2022-11-20T00:48:49.777Z,443.00
2022-11-20T00:49:20.378Z,441.00
2022-11-20T00:49:49.998Z,440.00
2022-11-20T00:50:19.994Z,441.00
2022-11-20T00:50:49.990Z,442.00
2022-11-20T00:51:20.152Z,441.00
2022-11-20T00:51:50.151Z,441.00
2022-11-20T00:52:20.141Z,440.00
2022-11-20T00:52:50.183Z,438.00
2022-11-20T00:53:20.160Z,439.00
2022-11-20T00:53:50.164Z,436.00
2022-11-20T00:54:20.184Z,435.00
2022-11-20T00:54:50.279Z,437.00
2022-11-20T00:55:20.380Z,439.00
2022-11-20T00:55:50.460Z,438.00
2022-11-20T00:56:20.549Z,439.00
2022-11-20T00:56:50.640Z,440.00
2022-11-20T00:57:20.738Z,440.00
2022-11-20T00:57:50.818Z,440.00
2022-11-20T00:58:20.925Z,443.00
2022-11-20T00:58:51.014Z,442.00
2022-11-20T00:59:21.393Z,443.00
2022-11-20T00:59:51.176Z,443.00
2022-11-20T01:00:21.259Z,445.00
2022-11-20T01:00:51.385Z,444.00
2022-11-20T01:01:21.488Z,444.00
2022-11-20T01:01:51.373Z,446.00
2022-11-20T01:02:21.447Z,447.00
2022-11-20T01:02:51.541Z,448.00
2022-11-20T01:03:26.803Z,448.00
2022-11-20T01:03:51.724Z,446.00
2022-11-20T01:04:21.801Z,444.00
2022-11-20T01:04:51.952Z,443.00
2022-11-20T01:05:21.946Z,441.00
2022-11-20T01:05:51.931Z,438.00
2022-11-20T01:06:22.063Z,438.00
2022-11-20T01:06:52.120Z,438.00
2022-11-20T01:07:22.195Z,437.00
2022-11-20T01:07:52.193Z,438.00
2022-11-20T01:08:22.186Z,436.00
2022-11-20T01:08:52.182Z,435.00
2022-11-20T01:09:22.476Z,436.00
2022-11-20T01:09:52.192Z,435.00
2022-11-20T01:10:22.180Z,435.00
2022-11-20T01:10:52.293Z,435.00
2022-11-20T01:11:22.304Z,436.00
2022-11-20T01:11:52.307Z,437.00
2022-11-20T01:12:22.333Z,440.00
2022-11-20T01:12:52.437Z,442.00
2022-11-20T01:13:25.663Z,441.00
2022-11-20T01:13:52.461Z,440.00
2022-11-20T01:14:22.492Z,440.00
2022-11-20T01:14:52.492Z,439.00
2022-11-20T01:15:22.493Z,439.00
2022-11-20T01:15:52.493Z,439.00
2022-11-20T01:16:22.628Z,438.00
2022-11-20T01:16:52.617Z,438.00
2022-11-20T01:17:22.746Z,438.00
2022-11-20T01:17:52.745Z,437.00
2022-11-20T01:18:22.759Z,438.00
2022-11-20T01:18:52.748Z,437.00
2022-11-20T01:19:23.214Z,435.00
2022-11-20T01:19:52.966Z,435.00
2022-11-20T01:20:23.073Z,435.00
2022-11-20T01:20:53.205Z,435.00
2022-11-20T01:21:23.221Z,435.00
2022-11-20T01:21:53.233Z,434.00
2022-11-20T01:22:23.230Z,434.00
2022-11-20T01:22:53.371Z,437.00
2022-11-20T01:23:23.359Z,437.00
2022-11-20T01:23:53.473Z,440.00
2022-11-20T01:24:23.477Z,440.00
2022-11-20T01:24:53.489Z,439.00
2022-11-20T01:25:23.491Z,438.00
2022-11-20T01:25:53.613Z,437.00
2022-11-20T01:26:23.620Z,435.00
2022-11-20T01:26:53.620Z,434.00
2022-11-20T01:27:23.620Z,432.00
2022-11-20T01:27:53.777Z,430.00
2022-11-20T01:28:23.787Z,429.00
2022-11-20T01:28:53.779Z,429.00
2022-11-20T01:29:24.434Z,429.00
2022-11-20T01:29:59.748Z,429.00
2022-11-20T01:30:23.971Z,428.00
2022-11-20T01:30:54.085Z,429.00
2022-11-20T01:31:24.092Z,430.00
2022-11-20T01:31:54.112Z,430.00
2022-11-20T01:32:24.106Z,430.00
2022-11-20T01:32:54.126Z,432.00
2022-11-20T01:33:24.120Z,430.00
2022-11-20T01:33:54.106Z,432.00
2022-11-20T01:34:24.227Z,434.00
2022-11-20T01:35:38.375Z,430.00
2022-11-20T01:36:08.479Z,425.00
2022-11-20T01:36:38.584Z,431.00
2022-11-20T01:37:08.653Z,431.00
2022-11-20T01:37:38.731Z,431.00
2022-11-20T01:38:08.835Z,427.00
2022-11-20T01:38:38.911Z,427.00
2022-11-20T01:39:09.003Z,427.00
2022-11-20T01:39:39.073Z,428.00
2022-11-20T01:40:09.169Z,428.00
2022-11-20T01:40:39.254Z,428.00
2022-11-20T01:41:09.348Z,426.00
2022-11-20T01:41:39.451Z,429.00
2022-11-20T01:42:10.418Z,429.00
2022-11-20T01:42:39.653Z,430.00
2022-11-20T01:43:09.745Z,432.00
2022-11-20T01:43:39.814Z,433.00
2022-11-20T01:44:09.928Z,433.00
2022-11-20T01:44:40.022Z,432.00
2022-11-20T01:45:10.128Z,432.00
2022-11-20T01:45:40.106Z,433.00
2022-11-20T01:46:10.218Z,434.00
2022-11-20T01:46:40.259Z,436.00
2022-11-20T01:47:10.250Z,434.00
2022-11-20T01:47:40.245Z,435.00
2022-11-20T01:48:10.360Z,434.00
2022-11-20T01:48:40.483Z,436.00
2022-11-20T01:49:10.489Z,435.00
2022-11-20T01:49:40.476Z,434.00
2022-11-20T01:50:10.492Z,436.00
2022-11-20T01:50:40.495Z,437.00
2022-11-20T01:51:10.488Z,437.00
2022-11-20T01:51:40.615Z,438.00
2022-11-20T01:52:10.610Z,439.00
2022-11-20T01:52:40.634Z,437.00
2022-11-20T01:53:10.630Z,436.00
2022-11-20T01:53:40.621Z,435.00
2022-11-20T01:54:10.644Z,436.00
2022-11-20T01:54:40.627Z,436.00
2022-11-20T01:55:10.637Z,437.00
2022-11-20T01:55:40.626Z,435.00
2022-11-20T01:56:10.745Z,434.00
2022-11-20T01:56:40.763Z,433.00
2022-11-20T01:57:10.762Z,435.00
2022-11-20T01:57:40.784Z,434.00
2022-11-20T01:58:10.788Z,434.00
2022-11-20T01:58:40.899Z,434.00
2022-11-20T01:59:11.025Z,435.00
2022-11-20T01:59:41.135Z,436.00
2022-11-20T02:00:11.140Z,438.00
2022-11-20T02:00:41.133Z,438.00
2022-11-20T02:01:11.355Z,437.00
2022-11-20T02:01:41.388Z,438.00
2022-11-20T02:02:11.378Z,438.00
2022-11-20T02:02:41.407Z,438.00
2022-11-20T02:03:11.393Z,438.00
2022-11-20T02:03:41.398Z,440.00
2022-11-20T02:04:11.391Z,440.00
2022-11-20T02:04:41.395Z,439.00
2022-11-20T02:05:11.392Z,439.00
2022-11-20T02:05:41.506Z,440.00
2022-11-20T02:06:11.532Z,440.00
2022-11-20T02:06:41.532Z,442.00
2022-11-20T02:07:11.595Z,442.00
2022-11-20T02:07:41.642Z,442.00
2022-11-20T02:08:11.623Z,442.00
2022-11-20T02:08:41.619Z,441.00
2022-11-20T02:09:11.616Z,443.00
2022-11-20T02:09:41.617Z,444.00
2022-11-20T02:10:11.720Z,444.00
2022-11-20T02:10:41.754Z,445.00
2022-11-20T02:11:11.768Z,444.00
2022-11-20T02:11:41.763Z,443.00
2022-11-20T02:12:11.877Z,444.00
2022-11-20T02:12:42.043Z,443.00
2022-11-20T02:13:12.011Z,446.00
2022-11-20T02:13:42.143Z,445.00
2022-11-20T02:14:12.158Z,446.00
2022-11-20T02:14:42.140Z,444.00
2022-11-20T02:15:12.269Z,443.00
2022-11-20T02:15:42.276Z,443.00
2022-11-20T02:16:12.296Z,445.00
2022-11-20T02:16:42.300Z,445.00
2022-11-20T02:17:12.424Z,445.00
2022-11-20T02:17:42.415Z,446.00
2022-11-20T02:18:12.544Z,446.00
2022-11-20T02:18:42.542Z,444.00
2022-11-20T02:19:12.655Z,444.00
2022-11-20T02:19:42.669Z,444.00
2022-11-20T02:20:12.670Z,444.00
2022-11-20T02:20:42.668Z,442.00
2022-11-20T02:21:12.711Z,440.00
2022-11-20T02:21:42.690Z,440.00
2022-11-20T02:22:12.698Z,443.00
2022-11-20T02:22:42.700Z,443.00
2022-11-20T02:23:12.693Z,442.00
2022-11-20T02:23:42.810Z,443.00
2022-11-20T02:24:12.929Z,441.00
2022-11-20T02:24:42.940Z,441.00
2022-11-20T02:25:12.923Z,439.00
2022-11-20T02:25:42.920Z,437.00
2022-11-20T02:26:12.965Z,436.00
2022-11-20T02:26:43.086Z,436.00
2022-11-20T02:27:13.103Z,436.00
2022-11-20T02:27:43.221Z,437.00
2022-11-20T02:28:13.239Z,437.00
2022-11-20T02:28:43.243Z,437.00
2022-11-20T02:29:13.258Z,436.00
2022-11-20T02:29:43.262Z,435.00
2022-11-20T02:30:13.254Z,437.00
2022-11-20T02:30:43.370Z,437.00
2022-11-20T02:31:13.481Z,439.00
2022-11-20T02:31:43.664Z,439.00
2022-11-20T02:32:13.643Z,439.00
2022-11-20T02:32:43.641Z,438.00
2022-11-20T02:33:13.664Z,438.00
2022-11-20T02:33:43.654Z,435.00
2022-11-20T02:34:13.655Z,434.00
2022-11-20T02:34:43.647Z,435.00
2022-11-20T02:35:13.766Z,434.00
2022-11-20T02:35:43.858Z,435.00
2022-11-20T02:36:13.940Z,433.00
2022-11-20T02:36:44.031Z,429.00
2022-11-20T02:37:14.119Z,430.00
2022-11-20T02:37:44.193Z,429.00
2022-11-20T02:38:14.283Z,430.00
2022-11-20T02:38:44.373Z,428.00
2022-11-20T02:39:14.435Z,429.00
2022-11-20T02:39:44.533Z,429.00
2022-11-20T02:40:14.639Z,429.00
2022-11-20T02:40:44.722Z,429.00
2022-11-20T02:41:14.842Z,432.00
2022-11-20T02:41:44.923Z,431.00
2022-11-20T02:42:15.038Z,434.00
2022-11-20T02:42:45.124Z,433.00
2022-11-20T02:43:15.221Z,435.00
2022-11-20T02:43:45.304Z,436.00
2022-11-20T02:44:15.398Z,437.00
2022-11-20T02:44:45.501Z,437.00
2022-11-20T02:45:15.603Z,438.00
2022-11-20T02:45:45.710Z,437.00
2022-11-20T02:46:15.828Z,435.00
2022-11-20T02:46:45.950Z,435.00
2022-11-20T02:47:15.947Z,435.00
2022-11-20T02:47:46.058Z,435.00
2022-11-20T02:48:16.059Z,435.00
2022-11-20T02:48:46.068Z,434.00
2022-11-20T02:49:16.082Z,434.00
2022-11-20T02:49:46.063Z,437.00
2022-11-20T02:50:16.050Z,440.00
2022-11-20T02:50:46.167Z,439.00
2022-11-20T02:51:16.289Z,438.00
2022-11-20T02:51:46.308Z,439.00
2022-11-20T02:52:16.312Z,438.00
2022-11-20T02:52:46.336Z,437.00
2022-11-20T02:53:16.316Z,437.00
2022-11-20T02:53:46.305Z,438.00
2022-11-20T02:54:16.339Z,437.00
2022-11-20T02:54:46.320Z,435.00
2022-11-20T02:55:16.314Z,434.00
2022-11-20T02:55:46.430Z,433.00
2022-11-20T02:56:16.555Z,433.00
2022-11-20T02:56:46.559Z,433.00
2022-11-20T02:57:16.551Z,433.00
2022-11-20T02:57:46.549Z,432.00
2022-11-20T02:58:16.541Z,432.00
2022-11-20T02:58:46.563Z,434.00
2022-11-20T02:59:16.556Z,433.00
2022-11-20T02:59:46.561Z,433.00
2022-11-20T03:00:16.688Z,434.00
2022-11-20T03:00:46.692Z,433.00
2022-11-20T03:01:16.747Z,433.00
2022-11-20T03:01:46.794Z,433.00
2022-11-20T03:02:16.809Z,434.00
2022-11-20T03:02:46.799Z,434.00
2022-11-20T03:03:16.829Z,433.00
2022-11-20T03:03:46.813Z,433.00
2022-11-20T03:04:16.812Z,433.00
2022-11-20T03:04:46.834Z,436.00
2022-11-20T03:05:16.835Z,436.00
2022-11-20T03:05:46.833Z,437.00
2022-11-20T03:06:16.962Z,437.00
2022-11-20T03:06:46.982Z,435.00
2022-11-20T03:07:17.034Z,436.00
2022-11-20T03:07:47.022Z,436.00
2022-11-20T03:08:17.018Z,435.00
2022-11-20T03:08:47.136Z,434.00
2022-11-20T03:09:17.133Z,432.00
2022-11-20T03:09:47.133Z,432.00
2022-11-20T03:10:17.135Z,431.00
2022-11-20T03:10:47.136Z,432.00
2022-11-20T03:11:17.253Z,432.00
2022-11-20T03:11:47.401Z,434.00
2022-11-20T03:12:17.402Z,432.00
2022-11-20T03:12:47.441Z,433.00
2022-11-20T03:13:17.442Z,435.00
2022-11-20T03:13:47.439Z,434.00
2022-11-20T03:14:17.443Z,433.00
2022-11-20T03:14:52.630Z,433.00
2022-11-20T03:15:17.568Z,432.00
2022-11-20T03:15:47.687Z,433.00
2022-11-20T03:16:17.696Z,433.00
2022-11-20T03:16:47.827Z,434.00
2022-11-20T03:17:17.841Z,434.00
2022-11-20T03:17:47.850Z,433.00
2022-11-20T03:18:17.975Z,432.00
2022-11-20T03:18:47.969Z,431.00
2022-11-20T03:19:18.091Z,432.00
2022-11-20T03:19:48.023Z,432.00
2022-11-20T03:20:18.018Z,432.00
2022-11-20T03:20:48.135Z,434.00
2022-11-20T03:21:18.150Z,434.00
2022-11-20T03:21:48.301Z,432.00
2022-11-20T03:22:18.302Z,433.00
2022-11-20T03:22:48.305Z,433.00
2022-11-20T03:23:18.304Z,431.00
2022-11-20T03:23:48.320Z,430.00
2022-11-20T03:24:18.436Z,428.00
2022-11-20T03:24:48.432Z,430.00
2022-11-20T03:25:18.556Z,431.00
2022-11-20T03:25:48.571Z,432.00
2022-11-20T03:26:18.565Z,431.00
2022-11-20T03:26:48.681Z,430.00
2022-11-20T03:27:18.705Z,431.00
2022-11-20T03:27:48.687Z,430.00
2022-11-20T03:28:18.700Z,429.00
2022-11-20T03:28:48.705Z,429.00
2022-11-20T03:29:19.079Z,430.00
2022-11-20T03:29:48.841Z,430.00
2022-11-20T03:30:18.864Z,431.00
2022-11-20T03:30:48.864Z,431.00
2022-11-20T03:31:18.866Z,431.00
2022-11-20T03:31:48.879Z,432.00
2022-11-20T03:32:18.876Z,433.00
2022-11-20T03:32:48.880Z,435.00
2022-11-20T03:33:18.899Z,434.00
2022-11-20T03:33:48.902Z,433.00
2022-11-20T03:34:18.915Z,432.00
2022-11-20T03:34:48.940Z,431.00
2022-11-20T03:35:19.024Z,432.00
2022-11-20T03:35:49.104Z,433.00
2022-11-20T03:36:19.199Z,432.00
2022-11-20T03:36:49.294Z,431.00
2022-11-20T03:37:19.389Z,432.00
2022-11-20T03:37:49.502Z,434.00
2022-11-20T03:38:19.562Z,435.00
2022-11-20T03:38:49.654Z,436.00
2022-11-20T03:39:20.109Z,436.00
2022-11-20T03:39:49.792Z,435.00
2022-11-20T03:40:19.869Z,435.00
2022-11-20T03:40:49.956Z,435.00
2022-11-20T03:41:20.037Z,435.00
2022-11-20T03:41:50.154Z,434.00
2022-11-20T03:42:20.221Z,433.00
2022-11-20T03:42:50.311Z,431.00
2022-11-20T03:43:20.405Z,432.00
2022-11-20T03:43:50.486Z,431.00
2022-11-20T03:44:20.582Z,430.00
2022-11-20T03:44:50.652Z,431.00
2022-11-20T03:45:20.751Z,430.00
2022-11-20T03:45:50.750Z,432.00
2022-11-20T03:46:20.756Z,433.00
2022-11-20T03:46:50.765Z,434.00
2022-11-20T03:47:20.796Z,434.00
2022-11-20T03:47:50.791Z,432.00
2022-11-20T03:48:20.798Z,432.00
2022-11-20T03:48:52.147Z,433.00
2022-11-20T03:49:21.230Z,434.00
2022-11-20T03:49:50.945Z,433.00
2022-11-20T03:50:20.935Z,433.00
2022-11-20T03:50:51.050Z,433.00
2022-11-20T03:51:21.184Z,434.00
2022-11-20T03:51:51.254Z,433.00
2022-11-20T03:52:21.239Z,435.00
2022-11-20T03:52:51.252Z,435.00
2022-11-20T03:53:21.249Z,434.00
2022-11-20T03:53:51.384Z,434.00
2022-11-20T03:54:21.361Z,433.00
2022-11-20T03:54:51.357Z,434.00
2022-11-20T03:55:21.362Z,433.00
2022-11-20T03:55:51.389Z,431.00
2022-11-20T03:56:21.387Z,431.00
2022-11-20T03:56:51.406Z,431.00
2022-11-20T03:57:21.402Z,429.00
2022-11-20T03:57:51.511Z,430.00
2022-11-20T03:58:21.623Z,429.00
2022-11-20T03:58:51.747Z,429.00
2022-11-20T03:59:21.984Z,428.00
2022-11-20T03:59:51.841Z,427.00
2022-11-20T04:00:21.850Z,426.00
2022-11-20T04:00:51.845Z,427.00
2022-11-20T04:01:22.045Z,428.00
2022-11-20T04:01:52.058Z,428.00
2022-11-20T04:02:22.054Z,429.00
2022-11-20T04:02:52.058Z,430.00
2022-11-20T04:03:22.186Z,428.00
2022-11-20T04:03:52.185Z,429.00
2022-11-20T04:04:22.184Z,428.00
2022-11-20T04:04:52.291Z,428.00
2022-11-20T04:05:22.309Z,428.00
2022-11-20T04:05:52.305Z,426.00
2022-11-20T04:06:22.441Z,426.00
2022-11-20T04:06:52.541Z,427.00
2022-11-20T04:07:22.564Z,428.00
2022-11-20T04:07:52.558Z,429.00
2022-11-20T04:08:22.670Z,430.00
2022-11-20T04:08:54.160Z,430.00
2022-11-20T04:09:23.142Z,431.00
2022-11-20T04:09:52.728Z,432.00
2022-11-20T04:10:22.746Z,431.00
2022-11-20T04:10:52.854Z,432.00
2022-11-20T04:11:22.886Z,432.00
2022-11-20T04:11:52.897Z,431.00
2022-11-20T04:12:22.907Z,430.00
2022-11-20T04:12:52.905Z,431.00
2022-11-20T04:13:22.903Z,433.00
2022-11-20T04:13:53.032Z,430.00
2022-11-20T04:14:23.138Z,429.00
2022-11-20T04:14:53.252Z,428.00
2022-11-20T04:15:23.381Z,427.00
2022-11-20T04:15:53.398Z,429.00
2022-11-20T04:16:23.405Z,429.00
2022-11-20T04:16:53.411Z,428.00
2022-11-20T04:17:23.404Z,427.00
2022-11-20T04:17:53.518Z,427.00
2022-11-20T04:18:23.645Z,427.00
2022-11-20T04:18:53.630Z,426.00
2022-11-20T04:19:24.000Z,422.00
2022-11-20T04:19:53.723Z,422.00
2022-11-20T04:20:23.713Z,424.00
2022-11-20T04:20:53.710Z,426.00
2022-11-20T04:21:23.822Z,428.00
2022-11-20T04:21:53.963Z,429.00
2022-11-20T04:22:23.997Z,429.00
2022-11-20T04:22:53.995Z,429.00
2022-11-20T04:23:28.722Z,429.00
2022-11-20T04:23:54.003Z,429.00
2022-11-20T04:24:24.129Z,429.00
2022-11-20T04:24:54.116Z,429.00
2022-11-20T04:25:24.232Z,429.00
2022-11-20T04:25:54.345Z,430.00
2022-11-20T04:26:24.366Z,431.00
2022-11-20T04:26:54.407Z,430.00
2022-11-20T04:27:24.413Z,434.00
2022-11-20T04:27:54.419Z,435.00
2022-11-20T04:28:24.437Z,437.00
2022-11-20T04:28:54.458Z,437.00
2022-11-20T04:29:24.433Z,436.00
2022-11-20T04:29:54.434Z,435.00
2022-11-20T04:30:24.437Z,436.00
2022-11-20T04:30:54.439Z,437.00
2022-11-20T04:31:24.466Z,438.00
2022-11-20T04:31:54.461Z,433.00
2022-11-20T04:32:24.465Z,430.00
2022-11-20T04:32:54.579Z,427.00
2022-11-20T04:33:24.736Z,426.00
2022-11-20T04:33:54.722Z,425.00
2022-11-20T04:34:24.735Z,428.00
2022-11-20T04:34:54.737Z,429.00
2022-11-20T04:35:24.835Z,429.00
2022-11-20T04:35:54.941Z,429.00
2022-11-20T04:36:25.036Z,428.00
2022-11-20T04:36:55.127Z,428.00
2022-11-20T04:37:25.217Z,429.00
2022-11-20T04:37:55.310Z,428.00
2022-11-20T04:38:25.386Z,427.00
2022-11-20T04:38:57.355Z,428.00
2022-11-20T04:39:25.531Z,427.00
2022-11-20T04:39:55.611Z,427.00
2022-11-20T04:40:25.696Z,425.00
2022-11-20T04:40:55.777Z,424.00
2022-11-20T04:41:25.860Z,426.00
2022-11-20T04:41:55.965Z,428.00
2022-11-20T04:42:25.972Z,429.00
2022-11-20T04:42:56.084Z,428.00
2022-11-20T04:43:26.134Z,429.00
2022-11-20T04:43:56.227Z,429.00
2022-11-20T04:44:26.313Z,429.00
2022-11-20T04:44:56.402Z,430.00
2022-11-20T04:45:26.516Z,430.00
2022-11-20T04:45:56.504Z,429.00
2022-11-20T04:46:26.626Z,428.00
2022-11-20T04:46:56.620Z,427.00
2022-11-20T04:47:26.629Z,429.00
2022-11-20T04:47:56.627Z,428.00
2022-11-20T04:48:26.761Z,425.00
2022-11-20T04:48:56.759Z,425.00
2022-11-20T04:49:26.798Z,427.00
2022-11-20T04:49:56.952Z,429.00
2022-11-20T04:50:26.783Z,428.00
2022-11-20T04:50:56.791Z,426.00
2022-11-20T04:51:26.785Z,425.00
2022-11-20T04:51:56.799Z,427.00
2022-11-20T04:52:26.904Z,427.00
2022-11-20T04:52:56.897Z,426.00
2022-11-20T04:53:26.952Z,426.00
2022-11-20T04:53:56.939Z,424.00
2022-11-20T04:54:26.930Z,421.00
2022-11-20T04:54:56.940Z,422.00
2022-11-20T04:55:26.968Z,421.00
2022-11-20T04:55:56.972Z,423.00
2022-11-20T04:56:26.955Z,426.00
2022-11-20T04:56:56.969Z,427.00
2022-11-20T04:57:27.092Z,425.00
2022-11-20T04:57:57.095Z,423.00
2022-11-20T04:58:27.110Z,423.00
2022-11-20T04:58:57.125Z,424.00
2022-11-20T04:59:27.166Z,425.00
2022-11-20T04:59:57.225Z,426.00
2022-11-20T05:00:27.294Z,426.00
2022-11-20T05:00:57.345Z,427.00
2022-11-20T05:01:27.375Z,427.00
2022-11-20T05:01:57.430Z,426.00
2022-11-20T05:02:27.453Z,426.00
2022-11-20T05:02:57.453Z,426.00
2022-11-20T05:03:27.582Z,427.00
2022-11-20T05:03:57.573Z,429.00
2022-11-20T05:04:27.709Z,429.00
2022-11-20T05:04:57.711Z,425.00
2022-11-20T05:05:27.830Z,424.00
2022-11-20T05:05:57.859Z,422.00
2022-11-20T05:06:27.862Z,423.00
2022-11-20T05:06:57.885Z,423.00
2022-11-20T05:07:27.950Z,425.00
2022-11-20T05:07:57.936Z,425.00
2022-11-20T05:08:27.925Z,424.00
2022-11-20T05:08:57.923Z,424.00
2022-11-20T05:09:28.049Z,423.00
2022-11-20T05:09:58.064Z,421.00
2022-11-20T05:10:28.047Z,422.00
2022-11-20T05:10:58.203Z,424.00
2022-11-20T05:11:28.190Z,424.00
2022-11-20T05:11:58.211Z,421.00
2022-11-20T05:12:28.228Z,420.00
2022-11-20T05:12:58.264Z,422.00
2022-11-20T05:13:28.260Z,422.00
2022-11-20T05:13:58.284Z,421.00
2022-11-20T05:14:28.330Z,422.00
2022-11-20T05:14:58.325Z,421.00
2022-11-20T05:15:28.450Z,420.00
2022-11-20T05:15:58.507Z,419.00
2022-11-20T05:16:28.610Z,422.00
2022-11-20T05:16:58.659Z,422.00
2022-11-20T05:17:28.792Z,423.00
2022-11-20T05:17:58.944Z,424.00
2022-11-20T05:18:28.991Z,422.00
2022-11-20T05:18:58.977Z,422.00
2022-11-20T05:19:28.979Z,419.00
2022-11-20T05:19:58.980Z,421.00
2022-11-20T05:20:29.100Z,421.00
2022-11-20T05:20:59.166Z,420.00
2022-11-20T05:21:29.174Z,419.00
2022-11-20T05:21:59.179Z,418.00
2022-11-20T05:22:29.165Z,420.00
2022-11-20T05:22:59.174Z,419.00
2022-11-20T05:23:29.340Z,418.00
2022-11-20T05:23:59.366Z,420.00
2022-11-20T05:24:29.383Z,421.00
2022-11-20T05:24:59.370Z,423.00
2022-11-20T05:25:29.367Z,424.00
2022-11-20T05:25:59.758Z,423.00
2022-11-20T05:26:29.451Z,424.00
2022-11-20T05:26:59.437Z,424.00
2022-11-20T05:27:29.463Z,424.00
2022-11-20T05:27:59.699Z,424.00
2022-11-20T05:28:29.690Z,425.00
2022-11-20T05:28:59.694Z,425.00
2022-11-20T05:29:29.680Z,426.00
2022-11-20T05:29:59.795Z,427.00
2022-11-20T05:30:29.796Z,427.00
2022-11-20T05:30:59.818Z,428.00
2022-11-20T05:31:29.799Z,427.00
2022-11-20T05:31:59.966Z,427.00
2022-11-20T05:32:29.929Z,427.00
2022-11-20T05:33:00.064Z,423.00
2022-11-20T05:33:30.048Z,423.00
2022-11-20T05:34:00.051Z,424.00
2022-11-20T05:34:30.057Z,424.00
2022-11-20T05:35:00.059Z,425.00
2022-11-20T05:35:30.138Z,424.00
2022-11-20T05:36:00.241Z,424.00
2022-11-20T05:36:30.307Z,425.00
2022-11-20T05:37:00.409Z,424.00
2022-11-20T05:37:30.513Z,424.00
2022-11-20T05:38:00.619Z,423.00
2022-11-20T05:38:30.711Z,424.00
2022-11-20T05:39:01.961Z,424.00
2022-11-20T05:39:30.897Z,425.00
2022-11-20T05:40:00.969Z,426.00
2022-11-20T05:40:31.064Z,426.00
2022-11-20T05:41:01.156Z,425.00
2022-11-20T05:41:31.262Z,423.00
2022-11-20T05:42:01.342Z,421.00
2022-11-20T05:42:31.418Z,424.00
2022-11-20T05:43:01.515Z,428.00
2022-11-20T05:43:31.589Z,427.00
2022-11-20T05:44:01.691Z,426.00
2022-11-20T05:44:31.770Z,425.00
2022-11-20T05:45:01.871Z,427.00
2022-11-20T05:45:31.862Z,427.00
2022-11-20T05:46:01.857Z,427.00
2022-11-20T05:46:31.868Z,425.00
2022-11-20T05:47:01.851Z,426.00
2022-11-20T05:47:31.844Z,425.00
2022-11-20T05:48:01.998Z,424.00
2022-11-20T05:48:31.988Z,425.00
2022-11-20T05:49:01.986Z,426.00
2022-11-20T05:49:31.992Z,425.00
2022-11-20T05:50:01.995Z,424.00
2022-11-20T05:50:31.989Z,424.00
2022-11-20T05:51:02.155Z,425.00
2022-11-20T05:51:32.161Z,423.00
2022-11-20T05:52:02.166Z,422.00
2022-11-20T05:52:32.280Z,422.00
2022-11-20T05:53:02.308Z,422.00
2022-11-20T05:53:32.285Z,420.00
2022-11-20T05:54:02.283Z,419.00
2022-11-20T05:54:32.408Z,420.00
2022-11-20T05:55:02.409Z,418.00
2022-11-20T05:55:32.402Z,418.00
2022-11-20T05:56:02.557Z,418.00
2022-11-20T05:56:32.549Z,419.00
2022-11-20T05:57:02.547Z,420.00
2022-11-20T05:57:32.545Z,421.00
2022-11-20T05:58:02.667Z,420.00
2022-11-20T05:58:32.752Z,421.00
2022-11-20T05:59:02.736Z,423.00
2022-11-20T05:59:32.723Z,423.00
2022-11-20T06:00:02.841Z,424.00
2022-11-20T06:00:32.844Z,425.00
2022-11-20T06:01:02.855Z,425.00
2022-11-20T06:01:32.858Z,426.00
2022-11-20T06:02:02.853Z,426.00
2022-11-20T06:02:32.916Z,426.00
2022-11-20T06:03:03.036Z,425.00
2022-11-20T06:03:32.947Z,424.00
2022-11-20T06:04:02.962Z,424.00
2022-11-20T06:04:32.955Z,424.00
2022-11-20T06:05:03.072Z,425.00
2022-11-20T06:05:33.060Z,424.00
2022-11-20T06:06:03.090Z,425.00
2022-11-20T06:06:33.073Z,427.00
2022-11-20T06:07:03.251Z,426.00
2022-11-20T06:07:33.317Z,425.00
2022-11-20T06:08:03.313Z,427.00
2022-11-20T06:08:33.308Z,427.00
2022-11-20T06:09:03.446Z,426.00
2022-11-20T06:09:33.437Z,425.00
2022-11-20T06:10:03.458Z,426.00
2022-11-20T06:10:33.464Z,429.00
2022-11-20T06:11:03.472Z,428.00
2022-11-20T06:11:33.466Z,429.00
2022-11-20T06:12:03.485Z,428.00
2022-11-20T06:12:33.483Z,427.00
2022-11-20T06:13:03.512Z,423.00
2022-11-20T06:13:35.228Z,424.00
2022-11-20T06:14:03.610Z,423.00
2022-11-20T06:14:33.603Z,425.00
2022-11-20T06:15:03.625Z,425.00
2022-11-20T06:15:33.634Z,424.00